| time (UTC) | temp F | wind direction | speed knots | gust knots | rain 1hr in | rain 24hr in | rain mn in | humidity % | barometer mb |
| 20260901181522 | 60 | 175 | 0.0 | 1.7 | 0.00 | 0.26 | 0.01 | 56 | 1017.8 |
| 20260901180018 | 61 | 288 | 0.0 | 0.0 | 0.00 | 0.26 | 0.01 | 56 | 1017.8 |
| 20260901174518 | 62 | 159 | 0.0 | 3.5 | 0.00 | 0.26 | 0.01 | 55 | 1017.8 |
| 20260901173020 | 64 | 124 | 0.0 | 2.6 | 0.00 | 0.26 | 0.01 | 55 | 1017.7 |
| 20260901171515 | 65 | 282 | 0.0 | 0.9 | 0.00 | 0.26 | 0.01 | 55 | 1017.8 |
| 20260901170012 | 63 | 120 | 0.0 | 3.5 | 0.00 | 0.26 | 0.01 | 55 | 1017.7 |
| 20260901164510 | 62 | 117 | 0.0 | 1.7 | 0.01 | 0.26 | 0.01 | 57 | 1017.8 |
| 20260901163010 | 62 | 229 | 0.0 | 0.0 | 0.01 | 0.26 | 0.01 | 65 | 1017.9 |
| 20260901161505 | 60 | 222 | 0.0 | 0.0 | 0.01 | 0.26 | 0.01 | 67 | 1018.1 |
| 20260901160105 | 57 | 223 | 0.0 | 0.0 | 0.01 | 0.26 | 0.01 | 82 | 1018.3 |
| 20260901154555 | 53 | 222 | 0.0 | 0.0 | 0.00 | 0.25 | 0.00 | 86 | 1018.5 |
| 20260901153050 | 51 | 223 | 0.0 | 0.0 | 0.00 | 0.25 | 0.00 | 93 | 1018.8 |
| 20260901151546 | 48 | 245 | 0.0 | 0.0 | 0.00 | 0.25 | 0.00 | 97 | 1018.9 |
| 20260901150041 | 44 | 245 | 0.0 | 0.0 | 0.00 | 0.25 | 0.00 | 97 | 1019.0 |
| 20260901144540 | 42 | 245 | 0.0 | 0.0 | 0.00 | 0.25 | 0.00 | 97 | 1019.2 |
| 20260901143045 | 41 | 245 | 0.0 | 0.0 | 0.00 | 0.25 | 0.00 | 97 | 1019.3 |
| 20260901141544 | 40 | 245 | 0.0 | 0.0 | 0.00 | 0.25 | 0.00 | 97 | 1019.4 |
| 20260901140051 | 40 | 245 | 0.0 | 0.0 | 0.00 | 0.25 | 0.00 | 97 | 1019.5 |
| 20260901134548 | 39 | 245 | 0.0 | 0.0 | 0.00 | 0.25 | 0.00 | 97 | 1019.5 |
| 20260901133041 | 39 | 245 | 0.0 | 0.0 | 0.00 | 0.25 | 0.00 | 97 | 1019.4 |
| 20260901131538 | 39 | 245 | 0.0 | 0.0 | 0.00 | 0.25 | 0.00 | 97 | 1019.2 |
| 20260901130039 | 39 | 245 | 0.0 | 0.0 | 0.00 | 0.25 | 0.00 | 97 | 1018.9 |
| 20260901124531 | 40 | 245 | 0.0 | 0.0 | 0.00 | 0.25 | 0.00 | 97 | 1018.6 |
| 20260901123028 | 40 | 245 | 0.0 | 0.0 | 0.00 | 0.25 | 0.00 | 97 | 1018.3 |
| 20260901121527 | 40 | 245 | 0.0 | 0.0 | 0.00 | 0.25 | 0.00 | 97 | 1018.2 |
| 20260901120042 | 40 | 245 | 0.0 | 0.0 | 0.00 | 0.25 | 0.00 | 97 | 1017.9 |
| 20260901114525 | 41 | 245 | 0.0 | 0.0 | 0.00 | 0.25 | 0.00 | 97 | 1017.8 |
| 20260901113023 | 41 | 245 | 0.0 | 0.0 | 0.00 | 0.25 | 0.00 | 97 | 1017.5 |
| 20260901111523 | 41 | 245 | 0.0 | 0.0 | 0.00 | 0.25 | 0.00 | 97 | 1017.6 |
| 20260901110022 | 41 | 245 | 0.0 | 0.0 | 0.00 | 0.25 | 0.00 | 97 | 1017.5 |
| 20260901104521 | 41 | 245 | 0.0 | 0.0 | 0.00 | 0.25 | 0.00 | 97 | 1017.5 |
| 20260901103026 | 42 | 245 | 0.0 | 0.0 | 0.00 | 0.25 | 0.00 | 97 | 1017.5 |
| 20260901101518 | 42 | 245 | 0.0 | 0.0 | 0.00 | 0.25 | 0.00 | 97 | 1017.5 |
| 20260901100016 | 42 | 245 | 0.0 | 0.0 | 0.00 | 0.25 | 0.00 | 97 | 1017.4 |
| 20260901094515 | 42 | 245 | 0.0 | 0.0 | 0.00 | 0.26 | 0.00 | 97 | 1017.5 |
| 20260901093015 | 42 | 245 | 0.0 | 0.0 | 0.00 | 0.26 | 0.00 | 96 | 1017.5 |
| 20260901091513 | 43 | 245 | 0.0 | 0.0 | 0.00 | 0.26 | 0.00 | 97 | 1017.4 |
| 20260901090013 | 43 | 245 | 0.0 | 0.0 | 0.00 | 0.26 | 0.00 | 97 | 1017.6 |
| 20260901084515 | 43 | 245 | 0.0 | 0.0 | 0.00 | 0.31 | 0.00 | 97 | 1017.5 |
| 20260901083012 | 43 | 245 | 0.0 | 0.0 | 0.00 | 0.31 | 0.00 | 96 | 1017.8 |
| 20260901081512 | 43 | 245 | 0.0 | 0.0 | 0.00 | 0.31 | 0.00 | 96 | 1018.1 |
| 20260901080010 | 43 | 245 | 0.0 | 0.0 | 0.00 | 0.31 | 0.00 | 96 | 1018.1 |
| 20260901074509 | 43 | 245 | 0.0 | 0.0 | 0.00 | 0.33 | 0.00 | 96 | 1018.2 |
| 20260901073007 | 43 | 245 | 0.0 | 0.0 | 0.00 | 0.33 | 0.00 | 96 | 1018.1 |
| 20260901071518 | 43 | 245 | 0.0 | 0.0 | 0.00 | 0.33 | 0.00 | 96 | 1017.8 |
| 20260901070014 | 43 | 290 | 0.0 | 0.0 | 0.00 | 0.33 | 0.00 | 96 | 1017.6 |
| 20260901064505 | 43 | 290 | 0.0 | 0.0 | 0.00 | 0.33 | 0.00 | 96 | 1017.7 |
| 20260901063003 | 43 | 290 | 0.0 | 0.0 | 0.00 | 0.33 | 0.00 | 96 | 1017.7 |
| 20260901061502 | 43 | 290 | 0.0 | 0.0 | 0.00 | 0.33 | 0.00 | 96 | 1017.7 |
| 20260901060100 | 43 | 290 | 0.0 | 0.0 | 0.00 | 0.33 | 0.00 | 96 | 1017.3 |
| 20260901054559 | 43 | 290 | 0.0 | 0.0 | 0.00 | 0.33 | 0.33 | 96 | 1017.3 |
| 20260901053121 | 43 | 290 | 0.0 | 0.0 | 0.00 | 0.33 | 0.33 | 96 | 1017.4 |
| 20260901051609 | 44 | 290 | 0.0 | 0.0 | 0.00 | 0.33 | 0.33 | 96 | 1017.3 |
| 20260901050055 | 44 | 290 | 0.0 | 0.0 | 0.00 | 0.33 | 0.33 | 96 | 1017.3 |
| 20260901044606 | 44 | 290 | 0.0 | 0.0 | 0.00 | 0.40 | 0.33 | 96 | 1017.3 |
| 20260901043054 | 44 | 290 | 0.0 | 0.0 | 0.00 | 0.40 | 0.33 | 96 | 1017.1 |
| 20260901041553 | 44 | 290 | 0.0 | 0.0 | 0.00 | 0.40 | 0.33 | 96 | 1017.1 |
| 20260901040108 | 45 | 290 | 0.0 | 0.0 | 0.00 | 0.40 | 0.33 | 95 | 1016.9 |
| 20260901034604 | 45 | 290 | 0.0 | 0.0 | 0.00 | 0.40 | 0.33 | 95 | 1016.6 |
| 20260901033045 | 46 | 290 | 0.0 | 0.0 | 0.00 | 0.40 | 0.33 | 95 | 1016.5 |
| 20260901031544 | 46 | 290 | 0.0 | 0.0 | 0.00 | 0.40 | 0.33 | 95 | 1015.8 |
| 20260901030043 | 46 | 290 | 0.0 | 0.0 | 0.00 | 0.40 | 0.33 | 95 | 1015.6 |
| 20260901024551 | 46 | 290 | 0.0 | 0.0 | 0.00 | 0.53 | 0.33 | 95 | 1015.4 |
| 20260901023056 | 46 | 290 | 0.0 | 0.0 | 0.00 | 0.53 | 0.33 | 94 | 1015.1 |
| 20260901021540 | 47 | 290 | 0.0 | 0.0 | 0.00 | 0.53 | 0.33 | 94 | 1014.6 |
| 20260901020044 | 48 | 290 | 0.0 | 0.0 | 0.00 | 0.53 | 0.33 | 93 | 1014.5 |
| 20260901014550 | 49 | 290 | 0.0 | 0.0 | 0.00 | 0.56 | 0.33 | 92 | 1014.5 |
| 20260901013039 | 50 | 290 | 0.0 | 0.0 | 0.00 | 0.56 | 0.33 | 91 | 1014.5 |
| 20260901011539 | 50 | 290 | 0.0 | 0.0 | 0.00 | 0.56 | 0.33 | 92 | 1014.5 |
| 20260901010038 | 51 | 290 | 0.0 | 0.0 | 0.00 | 0.56 | 0.33 | 90 | 1014.3 |
| 20260901004538 | 51 | 290 | 0.0 | 0.0 | 0.00 | 0.56 | 0.33 | 90 | 1014.8 |
| 20260901003038 | 51 | 290 | 0.0 | 0.0 | 0.00 | 0.56 | 0.33 | 91 | 1014.9 |
| 20260901001537 | 51 | 290 | 0.0 | 0.0 | 0.00 | 0.56 | 0.33 | 90 | 1015.1 |
| 20260901000035 | 52 | 290 | 0.0 | 0.9 | 0.00 | 0.56 | 0.33 | 90 | 1015.3 |
| 20260831234540 | 52 | 142 | 0.0 | 2.6 | 0.00 | 0.56 | 0.33 | 88 | 1015.1 |
| 20260831233034 | 51 | 110 | 0.0 | 0.9 | 0.03 | 0.56 | 0.33 | 88 | 1015.0 |
| 20260831231534 | 52 | 110 | 0.0 | 0.9 | 0.04 | 0.56 | 0.33 | 88 | 1014.8 |
| 20260831230033 | 52 | 135 | 0.0 | 5.2 | 0.06 | 0.56 | 0.33 | 86 | 1014.6 |
| 20260831224533 | 52 | 141 | 0.0 | 1.7 | 0.06 | 0.69 | 0.33 | 87 | 1014.8 |
| 20260831223036 | 53 | 167 | 0.0 | 0.0 | 0.03 | 0.66 | 0.30 | 90 | 1015.1 |
| 20260831221532 | 53 | 139 | 0.0 | 1.7 | 0.02 | 0.65 | 0.28 | 87 | 1014.9 |
| 20260831220031 | 54 | 323 | 0.0 | 1.7 | 0.02 | 0.63 | 0.27 | 86 | 1014.7 |
| 20260831214531 | 54 | 131 | 0.0 | 3.5 | 0.02 | 0.63 | 0.27 | 91 | 1014.7 |
| 20260831213030 | 53 | 115 | 0.0 | 0.9 | 0.03 | 0.63 | 0.27 | 91 | 1014.7 |
| 20260831211531 | 52 | 110 | 0.0 | 0.9 | 0.03 | 0.63 | 0.27 | 91 | 1014.6 |
| 20260831210029 | 53 | 95 | 0.0 | 0.0 | 0.02 | 0.61 | 0.25 | 91 | 1014.6 |
| 20260831204529 | 53 | 189 | 0.0 | 0.0 | 0.04 | 0.61 | 0.25 | 91 | 1014.6 |
| 20260831203029 | 53 | 189 | 0.0 | 0.0 | 0.07 | 0.60 | 0.24 | 90 | 1014.9 |
| 20260831201629 | 53 | 189 | 0.0 | 0.0 | 0.11 | 0.60 | 0.24 | 93 | 1014.8 |
| 20260831200039 | 52 | 192 | 0.0 | 0.0 | 0.14 | 0.59 | 0.23 | 93 | 1015.0 |
| 20260831194528 | 52 | 319 | 0.0 | 0.0 | 0.13 | 0.56 | 0.21 | 93 | 1015.7 |
| 20260831193036 | 52 | 93 | 0.0 | 1.7 | 0.09 | 0.53 | 0.17 | 91 | 1015.7 |
| 20260831191532 | 53 | 124 | 0.0 | 0.9 | 0.04 | 0.48 | 0.12 | 88 | 1015.5 |
| 20260831190025 | 54 | 146 | 0.0 | 0.0 | 0.01 | 0.45 | 0.09 | 85 | 1015.1 |
| 20260831184525 | 55 | 113 | 0.0 | 2.6 | 0.00 | 0.44 | 0.08 | 80 | 1015.0 |
| 20260831183023 | 56 | 109 | 0.0 | 1.7 | 0.00 | 0.44 | 0.08 | 78 | 1015.2 |